Time;durP1;ratioP1;P1;durP2;ratioP2;P2;SDS_P1;SDS_P2;PMS_P1;PMS_P2;Temp;Humidity;BMP_temperature;BMP_pressure;BME280_temperature;BME280_humidity;BME280_pressure;Samples;Min_cycle;Max_cycle;Signal;HPM_P1;HPM_P2
2022/11/15 00:00:29;;;;;;;31.45;22.42;;;;;;;7.89;100.00;100341.87;2991676;77;21655;-87
2022/11/15 00:04:32;;;;;;;37.03;20.60;;;;;;;7.84;99.53;100337.38;3044670;76;21501;-87
2022/11/15 00:08:33;;;;;;;29.72;22.93;;;;;;;7.75;99.77;100336.22;3029148;76;20968;-88
2022/11/15 00:12:35;;;;;;;35.23;24.27;;;;;;;7.61;100.00;100332.34;3012960;76;20990;-88
2022/11/15 00:16:36;;;;;;;30.32;21.27;;;;;;;7.56;100.00;100329.54;2981863;76;20996;-87
2022/11/15 00:20:38;;;;;;;34.65;25.15;;;;;;;7.51;100.00;100322.86;3026343;76;21030;-87
2022/11/15 00:24:39;;;;;;;38.28;28.07;;;;;;;7.45;100.00;100320.15;3044463;76;21600;-87
2022/11/15 00:28:42;;;;;;;41.90;27.25;;;;;;;7.36;100.00;100324.27;2954236;77;21002;-87
2022/11/15 00:32:43;;;;;;;38.80;24.10;;;;;;;7.32;100.00;100321.46;3024095;76;21062;-87
2022/11/15 00:36:44;;;;;;;46.02;28.25;;;;;;;7.32;100.00;100324.60;3004597;77;20988;-88
2022/11/15 00:40:46;;;;;;;36.53;24.95;;;;;;;7.29;100.00;100327.83;2969696;77;21911;-87
2022/11/15 00:44:47;;;;;;;48.90;26.37;;;;;;;7.14;100.00;100323.56;2946469;78;20996;-87
2022/11/15 00:48:48;;;;;;;40.73;24.20;;;;;;;6.77;100.00;100318.89;2952133;77;21023;-87
2022/11/15 00:52:49;;;;;;;35.33;25.60;;;;;;;6.60;100.00;100320.50;2999962;77;21494;-87
2022/11/15 00:56:51;;;;;;;36.58;23.77;;;;;;;6.47;100.00;100317.77;2954289;77;21007;-88
2022/11/15 01:00:52;;;;;;;34.50;22.45;;;;;;;6.45;100.00;100313.06;2959753;79;20976;-88
2022/11/15 01:04:53;;;;;;;30.25;21.17;;;;;;;6.47;100.00;100309.84;2986165;76;21609;-87
2022/11/15 01:08:55;;;;;;;35.10;25.60;;;;;;;6.53;100.00;100302.86;3015767;76;21026;-88
2022/11/15 01:12:56;;;;;;;39.42;23.77;;;;;;;6.41;100.00;100304.02;2939128;77;21044;-88
2022/11/15 01:16:57;;;;;;;33.67;23.10;;;;;;;6.47;100.00;100297.95;2970610;77;21529;-88
2022/11/15 01:20:59;;;;;;;31.73;24.27;;;;;;;6.51;100.00;100294.19;2977763;76;20985;-87
2022/11/15 01:25:00;;;;;;;42.53;26.95;;;;;;;6.50;100.00;100292.00;3015267;76;20994;-88
2022/11/15 01:29:01;;;;;;;45.35;28.67;;;;;;;6.50;100.00;100296.45;2960216;76;21082;-88
2022/11/15 01:33:03;;;;;;;44.03;26.27;;;;;;;6.50;100.00;100283.24;3059550;76;20995;-88
2022/11/15 01:37:04;;;;;;;38.63;25.25;;;;;;;6.49;100.00;100275.77;2997093;76;20978;-87
2022/11/15 01:41:05;;;;;;;35.45;25.70;;;;;;;6.45;100.00;100269.45;2977802;77;21015;-87
2022/11/15 01:45:12;;;;;;;36.50;26.42;;;;;;;6.16;100.00;100257.66;3010252;77;20980;-87
2022/11/15 01:49:18;;;;;;;44.27;27.02;;;;;;;6.14;100.00;100267.86;3044048;76;21826;-88
2022/11/15 01:53:23;;;;;;;36.13;25.70;;;;;;;6.22;100.00;100262.09;3003603;76;21556;-87
2022/11/15 01:57:24;;;;;;;41.37;25.25;;;;;;;6.19;100.00;100258.78;3029095;76;21637;-88
2022/11/15 02:01:26;;;;;;;40.60;26.73;;;;;;;6.02;100.00;100255.42;3012064;76;21137;-87
2022/11/15 02:05:30;;;;;;;39.50;23.55;;;;;;;6.13;100.00;100256.92;2980939;78;21586;-88
2022/11/15 02:09:32;;;;;;;32.80;23.20;;;;;;;6.25;100.00;100244.72;3005447;76;20996;-88
2022/11/15 02:13:33;;;;;;;35.80;25.25;;;;;;;6.40;100.00;100238.07;2904425;78;21563;-87
2022/11/15 02:17:45;;;;;;;30.68;24.05;;;;;;;6.47;100.00;100240.67;3015796;77;21037;-88
2022/11/15 02:22:12;;;;;;;48.33;27.98;;;;;;;6.46;100.00;100228.41;2983437;77;21427;-87
2022/11/15 02:26:34;;;;;;;38.70;27.30;;;;;;;6.43;100.00;100229.45;2978999;77;20986;-87
2022/11/15 02:30:57;;;;;;;38.67;25.57;;;;;;;6.37;100.00;100230.31;2927313;78;21019;-87
2022/11/15 02:35:27;;;;;;;39.80;29.70;;;;;;;6.24;100.00;100232.45;2952960;77;21616;-87
2022/11/15 02:39:46;;;;;;;50.73;34.05;;;;;;;6.07;100.00;100230.05;2893460;79;21680;-87
2022/11/15 02:44:05;;;;;;;50.17;32.40;;;;;;;5.99;100.00;100230.05;2907504;77;21562;-87
2022/11/15 02:48:08;;;;;;;53.42;35.08;;;;;;;5.97;100.00;100233.72;2994737;77;22470;-88
2022/11/15 02:52:18;;;;;;;54.20;35.98;;;;;;;5.97;100.00;100232.39;2973325;77;20996;-87
2022/11/15 02:56:19;;;;;;;52.30;33.55;;;;;;;5.98;100.00;100227.48;2971926;76;21133;-87
2022/11/15 03:00:21;;;;;;;43.15;28.55;;;;;;;6.03;100.00;100227.23;3015282;76;21134;-87
2022/11/15 03:04:40;;;;;;;48.15;31.45;;;;;;;5.89;98.51;100237.30;2951020;78;21077;-87
2022/11/15 03:08:59;;;;;;;50.10;29.57;;;;;;;5.82;99.82;100244.78;2923878;79;21099;-87
2022/11/15 03:13:11;;;;;;;47.05;29.20;;;;;;;5.57;97.31;100248.47;2886512;79;21004;-87
2022/11/15 03:17:29;;;;;;;50.05;33.92;;;;;;;5.41;98.00;100252.52;2955645;79;21008;-87
2022/11/15 03:21:32;;;;;;;55.95;34.78;;;;;;;5.28;97.77;100240.52;3013737;77;21031;-87
2022/11/15 03:25:39;;;;;;;54.77;33.80;;;;;;;5.34;98.93;100237.98;2989225;76;20990;-87
2022/11/15 03:29:45;;;;;;;59.38;37.23;;;;;;;5.38;98.16;100229.42;3001194;77;20955;-87
2022/11/15 03:33:46;;;;;;;55.95;38.25;;;;;;;5.43;98.20;100223.39;2982395;76;21018;-87
2022/11/15 03:38:21;;;;;;;63.80;40.95;;;;;;;5.38;99.56;100215.75;3037281;76;21042;-87
2022/11/15 03:42:34;;;;;;;65.37;39.80;;;;;;;5.35;100.00;100204.07;2959549;78;20980;-88
2022/11/15 03:46:44;;;;;;;61.23;39.73;;;;;;;5.33;100.00;100190.63;2953677;77;20959;-87
2022/11/15 03:50:46;;;;;;;59.15;37.30;;;;;;;5.16;100.00;100183.27;2997037;76;20988;-87
2022/11/15 03:54:54;;;;;;;56.83;37.38;;;;;;;4.98;100.00;100176.84;2985399;77;20992;-87
2022/11/15 03:58:56;;;;;;;57.65;34.35;;;;;;;4.80;100.00;100180.58;2994647;77;21513;-87
2022/11/15 04:02:57;;;;;;;54.27;34.53;;;;;;;4.40;100.00;100182.44;3022760;76;20964;-87
2022/11/15 04:06:59;;;;;;;71.17;41.80;;;;;;;3.90;100.00;100175.16;2940824;77;21122;-87
2022/11/15 04:11:00;;;;;;;52.58;33.98;;;;;;;3.86;100.00;100189.81;2844324;80;21058;-87
2022/11/15 04:15:09;;;;;;;51.15;35.68;;;;;;;3.85;100.00;100184.16;2950245;76;21557;-87
2022/11/15 04:27:48;;;;;;;50.17;29.63;;;;;;;3.75;100.00;100186.94;2998013;77;21034;-87
2022/11/15 04:31:49;;;;;;;43.45;29.85;;;;;;;3.78;100.00;100180.19;2923639;79;21025;-87
2022/11/15 04:40:11;;;;;;;42.78;26.27;;;;;;;3.90;100.00;100173.84;2867598;81;21010;-87
2022/11/15 04:44:12;;;;;;;34.67;25.37;;;;;;;3.85;100.00;100168.38;2862781;80;21031;-88
2022/11/15 04:48:14;;;;;;;40.23;27.48;;;;;;;3.96;100.00;100184.05;2875301;79;20988;-88
2022/11/15 04:52:15;;;;;;;44.85;25.82;;;;;;;4.14;100.00;100169.84;2862425;78;21059;-88
2022/11/15 04:56:16;;;;;;;41.05;28.57;;;;;;;4.19;100.00;100171.36;2886551;80;20971;-88
2022/11/15 05:00:18;;;;;;;37.65;28.95;;;;;;;4.22;100.00;100168.06;2888003;78;21031;-88
2022/11/15 05:04:19;;;;;;;41.58;26.27;;;;;;;4.31;100.00;100174.59;2906104;79;21058;-88
2022/11/15 05:08:21;;;;;;;34.03;25.08;;;;;;;4.34;100.00;100188.92;2949338;78;21054;-89
2022/11/15 05:12:22;;;;;;;39.67;28.00;;;;;;;4.33;100.00;100183.28;2955688;79;21011;-90
2022/11/15 05:16:23;;;;;;;39.83;25.77;;;;;;;4.33;100.00;100158.27;2801308;81;21521;-88
2022/11/15 05:20:24;;;;;;;40.43;26.75;;;;;;;4.22;100.00;100161.48;2917846;79;21051;-88
2022/11/15 05:24:26;;;;;;;49.35;28.42;;;;;;;4.18;100.00;100156.50;2957664;77;21479;-89
2022/11/15 05:28:27;;;;;;;73.45;47.13;;;;;;;4.10;100.00;100157.77;2981982;76;20991;-89
2022/11/15 05:32:29;;;;;;;107.65;68.60;;;;;;;4.09;100.00;100156.08;2981104;77;21041;-88
2022/11/15 05:36:45;;;;;;;53.87;36.05;;;;;;;4.24;100.00;100157.46;2866876;79;21008;-88
2022/11/15 05:40:47;;;;;;;42.50;30.48;;;;;;;4.40;100.00;100162.23;3014916;76;21557;-88
2022/11/15 05:44:49;;;;;;;45.10;29.70;;;;;;;4.41;100.00;100153.38;2999124;77;20995;-88
2022/11/15 05:48:53;;;;;;;33.28;27.73;;;;;;;4.25;100.00;100142.91;2896316;79;21503;-88
2022/11/15 05:52:55;;;;;;;43.52;26.35;;;;;;;4.29;100.00;100144.87;2964269;78;21460;-88
2022/11/15 05:56:57;;;;;;;41.77;26.10;;;;;;;4.19;100.00;100148.98;2996534;77;21011;-87
2022/11/15 06:00:59;;;;;;;36.40;26.57;;;;;;;4.27;100.00;100159.46;2994375;77;21070;-88
2022/11/15 06:05:00;;;;;;;44.33;28.87;;;;;;;4.34;100.00;100161.27;2980235;76;20975;-88
2022/11/15 06:09:01;;;;;;;37.33;28.67;;;;;;;4.26;100.00;100156.90;3012911;76;20968;-88
2022/11/15 06:13:04;;;;;;;49.15;30.12;;;;;;;4.19;100.00;100156.88;3032135;76;20970;-88
2022/11/15 06:17:06;;;;;;;51.15;34.00;;;;;;;4.27;100.00;100159.91;2941438;78;21562;-88
2022/11/15 06:21:07;;;;;;;53.33;36.73;;;;;;;4.14;100.00;100163.27;2813432;81;20995;-89
2022/11/15 06:25:08;;;;;;;45.80;32.90;;;;;;;4.21;100.00;100162.42;2930756;78;20999;-88
2022/11/15 06:29:10;;;;;;;87.67;52.40;;;;;;;4.24;100.00;100155.69;2983300;77;20995;-89
2022/11/15 06:33:11;;;;;;;49.85;32.60;;;;;;;4.24;100.00;100157.01;2875441;79;21011;-89
2022/11/15 06:37:13;;;;;;;45.30;29.72;;;;;;;4.19;100.00;100160.35;2968043;78;20995;-88
2022/11/15 06:41:15;;;;;;;41.55;30.43;;;;;;;4.19;100.00;100160.35;2872502;80;21020;-89
2022/11/15 06:45:16;;;;;;;38.65;26.93;;;;;;;4.18;100.00;100167.87;2880986;80;21103;-87
2022/11/15 06:49:17;;;;;;;40.80;28.17;;;;;;;4.28;100.00;100168.19;2931994;79;21511;-90
2022/11/15 06:53:22;;;;;;;42.03;28.30;;;;;;;4.41;100.00;100173.14;2833191;80;21020;-88
2022/11/15 06:57:23;;;;;;;36.48;21.82;;;;;;;4.48;100.00;100174.09;2854088;80;21038;-91
2022/11/15 07:01:25;;;;;;;37.03;24.52;;;;;;;4.54;99.62;100175.07;2977582;76;21580;-89
2022/11/15 07:05:26;;;;;;;40.20;26.48;;;;;;;4.57;99.21;100181.47;3045909;76;20982;-89
2022/11/15 07:09:28;;;;;;;35.17;21.73;;;;;;;4.64;98.84;100194.66;3053018;75;20959;-90
2022/11/15 07:13:34;;;;;;;34.58;24.90;;;;;;;4.77;98.89;100186.04;3010915;76;20998;-91
2022/11/15 07:17:36;;;;;;;39.00;25.88;;;;;;;4.82;99.32;100178.24;2996650;76;21014;-90
2022/11/15 07:21:37;;;;;;;32.00;24.65;;;;;;;4.91;99.51;100179.94;3019637;76;21008;-90
2022/11/15 07:25:38;;;;;;;42.53;25.27;;;;;;;4.84;98.11;100186.91;2906874;75;21578;-90
2022/11/15 07:29:40;;;;;;;32.60;25.57;;;;;;;4.82;99.06;100187.92;2993973;76;21027;-90
2022/11/15 07:33:41;;;;;;;38.30;27.60;;;;;;;4.97;100.00;100181.74;2907584;77;21026;-90
2022/11/15 07:37:42;;;;;;;38.13;28.92;;;;;;;5.14;100.00;100178.08;3010674;77;20987;-90
2022/11/15 07:41:44;;;;;;;38.85;32.08;;;;;;;5.35;100.00;100175.55;2980080;78;21503;-91
2022/11/15 07:45:45;;;;;;;54.98;34.53;;;;;;;5.55;100.00;100181.75;3034913;76;20998;-90
2022/11/15 07:49:47;;;;;;;50.85;35.15;;;;;;;5.76;99.99;100183.11;3022645;77;21511;-90
2022/11/15 07:53:48;;;;;;;52.55;37.63;;;;;;;5.99;100.00;100168.45;3035823;76;20967;-90
2022/11/15 07:57:50;;;;;;;48.90;33.40;;;;;;;6.14;100.00;100164.85;3004528;76;21000;-91
2022/11/15 08:01:51;;;;;;;49.18;36.23;;;;;;;6.35;100.00;100159.10;2983083;77;21531;-90
2022/11/15 08:05:52;;;;;;;61.33;42.23;;;;;;;6.49;100.00;100163.95;2998907;76;20936;-90
2022/11/15 08:09:55;;;;;;;69.20;45.75;;;;;;;6.47;99.22;100162.72;2961890;77;21004;-90
2022/11/15 08:13:56;;;;;;;75.22;45.20;;;;;;;6.54;99.65;100157.88;2956442;78;20970;-89
2022/11/15 08:18:00;;;;;;;62.75;42.33;;;;;;;6.70;100.00;100153.25;2971014;78;20945;-89
2022/11/15 08:22:01;;;;;;;51.60;37.42;;;;;;;6.89;100.00;100152.00;2953004;77;20984;-89
2022/11/15 08:26:04;;;;;;;61.05;40.43;;;;;;;7.08;99.83;100146.77;2872669;81;21011;-89
2022/11/15 08:30:07;;;;;;;57.88;37.13;;;;;;;7.25;99.98;100144.25;2945222;78;20972;-89
2022/11/15 08:34:08;;;;;;;66.25;40.15;;;;;;;7.33;99.73;100138.42;2905156;79;21133;-89
2022/11/15 08:38:10;;;;;;;48.90;35.83;;;;;;;7.50;100.00;100138.07;2927759;79;20977;-89
2022/11/15 08:42:11;;;;;;;55.50;36.75;;;;;;;7.71;100.00;100134.84;2899237;79;21002;-89
2022/11/15 08:46:13;;;;;;;56.28;39.40;;;;;;;7.84;100.00;100134.28;2833252;79;21491;-89
2022/11/15 08:50:15;;;;;;;73.52;43.52;;;;;;;8.11;100.00;100129.27;2961463;78;21081;-89
2022/11/15 08:54:17;;;;;;;83.33;50.75;;;;;;;8.44;100.00;100126.84;2996853;77;21674;-89
2022/11/15 08:58:18;;;;;;;72.25;48.55;;;;;;;8.71;100.00;100120.42;2995729;77;21150;-89
2022/11/15 09:02:19;;;;;;;75.87;44.90;;;;;;;8.97;100.00;100115.76;2955669;77;21102;-89
2022/11/15 09:06:22;;;;;;;54.10;38.85;;;;;;;9.17;99.14;100112.02;2913548;79;21663;-89
2022/11/15 09:10:24;;;;;;;54.23;35.30;;;;;;;9.29;98.30;100107.08;2964395;77;21497;-89
2022/11/15 09:14:26;;;;;;;49.33;38.48;;;;;;;9.35;96.77;100108.88;3001663;77;20998;-89
2022/11/15 09:18:27;;;;;;;59.08;39.90;;;;;;;9.49;97.84;100117.92;2994128;77;21048;-89
2022/11/15 09:22:28;;;;;;;48.50;36.38;;;;;;;9.65;97.89;100114.86;2955378;78;21010;-89
2022/11/15 09:26:30;;;;;;;54.85;39.45;;;;;;;9.82;97.27;100110.83;2967202;77;21012;-89
2022/11/15 09:30:31;;;;;;;60.95;35.15;;;;;;;9.98;97.35;100115.75;2942190;78;21020;-89
2022/11/15 09:34:32;;;;;;;48.70;32.95;;;;;;;10.10;97.75;100104.59;2915238;78;21019;-89
2022/11/15 09:38:34;;;;;;;43.25;32.00;;;;;;;10.21;96.77;100097.05;2945951;77;21003;-89
2022/11/15 09:42:53;;;;;;;48.45;32.48;;;;;;;10.33;96.32;100096.50;2990741;76;21006;-89
2022/11/15 09:47:42;;;;;;;51.08;36.03;;;;;;;10.43;95.57;100085.49;2995692;77;21574;-88
2022/11/15 09:51:50;;;;;;;52.03;35.35;;;;;;;10.54;94.44;100079.73;3011450;77;21545;-88
2022/11/15 10:00:35;;;;;;;54.60;34.63;;;;;;;10.76;95.46;100072.09;2939819;78;70424;-86
2022/11/15 10:04:39;;;;;;;51.80;36.50;;;;;;;10.91;95.92;100064.59;2920733;79;21410;-88
2022/11/15 10:08:52;;;;;;;55.95;38.70;;;;;;;11.04;95.25;100059.04;2882665;79;20996;-87
2022/11/15 10:12:54;;;;;;;47.25;35.08;;;;;;;11.23;96.84;100052.95;2940357;79;21059;-89
2022/11/15 10:17:25;;;;;;;55.17;37.48;;;;;;;11.36;96.62;100047.84;2890274;79;20968;-88
2022/11/15 10:21:56;;;;;;;55.52;36.85;;;;;;;11.50;97.08;100043.97;2945683;79;20987;-88
2022/11/15 10:25:59;;;;;;;52.00;33.70;;;;;;;11.68;97.35;100034.29;2939252;79;21613;-87
2022/11/15 10:30:04;;;;;;;55.23;35.78;;;;;;;11.90;97.75;100044.83;2880621;80;21015;-88
2022/11/15 10:34:16;;;;;;;45.63;32.45;;;;;;;12.05;98.04;100031.46;2851480;81;21153;-87
2022/11/15 10:38:17;;;;;;;50.23;36.70;;;;;;;12.24;96.88;100026.58;2804980;82;21024;-87
2022/11/15 10:42:26;;;;;;;48.48;36.58;;;;;;;12.41;97.29;100013.49;2931111;79;21007;-87
2022/11/15 10:46:27;;;;;;;45.33;30.88;;;;;;;12.59;97.41;99999.41;2931373;79;21098;-87
2022/11/15 10:50:31;;;;;;;47.33;31.93;;;;;;;12.72;96.65;99999.92;2876186;79;21047;-88
2022/11/15 10:54:43;;;;;;;53.58;33.88;;;;;;;12.86;96.75;99998.59;2924941;79;20975;-87
2022/11/15 10:58:51;;;;;;;48.05;33.50;;;;;;;12.98;96.66;99996.08;2922989;79;20995;-87
2022/11/15 11:03:03;;;;;;;55.30;35.00;;;;;;;13.08;96.48;99991.16;2928642;79;21534;-88
2022/11/15 11:07:10;;;;;;;49.88;34.05;;;;;;;13.18;96.46;99984.44;2892644;79;21125;-88
2022/11/15 11:11:11;;;;;;;50.58;35.70;;;;;;;13.25;96.45;99982.34;2915901;79;21582;-88
2022/11/15 11:15:15;;;;;;;47.88;33.18;;;;;;;13.34;96.26;99979.75;2920244;78;20984;-86
2022/11/15 11:19:44;;;;;;;51.10;37.25;;;;;;;13.47;96.29;99978.09;2927004;79;21533;-86
2022/11/15 11:24:25;;;;;;;47.67;35.63;;;;;;;13.55;96.71;99976.31;2949015;77;21033;-88
2022/11/15 11:28:54;;;;;;;49.20;34.15;;;;;;;13.65;95.13;99968.73;2852655;81;21153;-87
2022/11/15 11:33:24;;;;;;;43.55;31.62;;;;;;;13.72;94.51;99956.41;2800629;81;21043;-88
2022/11/15 11:37:49;;;;;;;41.80;30.97;;;;;;;13.80;94.51;99955.16;2830363;81;21024;-87
2022/11/15 11:42:10;;;;;;;39.67;32.42;;;;;;;13.89;94.92;99948.05;2772424;83;21046;-87
2022/11/15 11:46:38;;;;;;;43.20;31.33;;;;;;;13.97;95.30;99941.92;2744923;84;21538;-87
2022/11/15 11:50:42;;;;;;;41.13;31.00;;;;;;;14.06;95.49;99934.28;2737589;84;21048;-87
2022/11/15 11:54:49;;;;;;;41.98;29.57;;;;;;;14.19;95.25;99931.69;2736532;84;20992;-87
2022/11/15 11:58:54;;;;;;;40.95;27.62;;;;;;;14.31;95.96;99929.06;2778457;82;21644;-86
2022/11/15 12:03:18;;;;;;;36.00;25.55;;;;;;;14.41;95.26;99924.45;2751594;81;21052;-87
2022/11/15 12:07:27;;;;;;;34.15;25.37;;;;;;;14.49;95.29;99910.76;2926490;79;21031;-87
2022/11/15 12:11:37;;;;;;;42.17;28.15;;;;;;;14.54;93.21;99899.06;2907800;79;21038;-87
2022/11/15 12:15:56;;;;;;;34.48;28.87;;;;;;;14.61;92.13;99900.11;2901803;79;21056;-86
2022/11/15 12:20:00;;;;;;;42.90;26.50;;;;;;;14.69;93.70;99893.44;2860831;81;21018;-86
2022/11/15 12:24:07;;;;;;;34.15;26.37;;;;;;;14.69;94.14;99884.58;2928612;79;21543;-86
2022/11/15 12:28:32;;;;;;;37.80;27.82;;;;;;;14.74;93.22;99883.62;2941584;79;21008;-86
2022/11/15 12:32:38;;;;;;;34.67;25.15;;;;;;;14.80;94.99;99882.95;2886319;80;20987;-86
2022/11/15 12:36:44;;;;;;;34.78;23.77;;;;;;;14.82;94.53;99881.47;2859103;81;21035;-86
2022/11/15 12:41:17;;;;;;;36.33;27.95;;;;;;;14.89;94.03;99869.61;2806054;82;21048;-86
2022/11/15 12:45:37;;;;;;;24.45;18.60;;;;;;;14.95;94.22;99869.80;2815809;82;21076;-86
2022/11/15 12:49:43;;;;;;;28.02;18.17;;;;;;;15.00;88.52;99873.30;2817607;81;20987;-86
2022/11/15 12:53:45;;;;;;;24.35;18.42;;;;;;;15.05;88.30;99862.09;2859036;80;21028;-86
2022/11/15 12:57:46;;;;;;;26.00;17.77;;;;;;;15.07;86.14;99862.76;2807635;82;21062;-85
2022/11/15 13:01:53;;;;;;;26.15;17.50;;;;;;;15.06;85.03;99861.08;2797330;82;21063;-86
2022/11/15 13:06:00;;;;;;;22.87;16.85;;;;;;;15.07;84.16;99853.38;2859278;81;20988;-85
2022/11/15 13:10:18;;;;;;;23.20;16.52;;;;;;;15.03;83.24;99847.51;2848970;81;21582;-86
2022/11/15 13:14:43;;;;;;;23.15;17.17;;;;;;;15.04;82.17;99846.54;2816642;82;21004;-86
2022/11/15 13:18:54;;;;;;;24.77;16.57;;;;;;;15.06;83.20;99846.35;2776111;82;21109;-86
2022/11/15 13:23:15;;;;;;;26.33;17.27;;;;;;;15.05;83.68;99850.04;2818162;82;21025;-86
2022/11/15 13:27:20;;;;;;;41.25;24.65;;;;;;;15.06;86.22;99845.02;2822682;82;21023;-86
2022/11/15 13:31:43;;;;;;;23.27;16.20;;;;;;;15.05;86.50;99852.23;2796866;82;21023;-86
2022/11/15 13:35:52;;;;;;;27.02;17.67;;;;;;;15.03;86.02;99850.19;2821700;82;21047;-86
2022/11/15 13:39:53;;;;;;;33.15;22.75;;;;;;;14.99;84.09;99847.52;2796482;82;21104;-86
2022/11/15 13:43:56;;;;;;;43.23;30.15;;;;;;;15.03;85.47;99845.35;2806662;81;21118;-86
2022/11/15 13:47:58;;;;;;;23.18;18.30;;;;;;;15.03;84.11;99838.14;2814316;82;21033;-84
2022/11/15 13:52:04;;;;;;;25.65;17.23;;;;;;;15.03;83.95;99826.60;2803812;82;21582;-85
2022/11/15 13:56:06;;;;;;;21.50;17.50;;;;;;;15.04;84.07;99824.26;2918522;79;21041;-87
2022/11/15 14:00:28;;;;;;;40.30;26.33;;;;;;;15.02;85.94;99816.38;2933035;79;21235;-86
2022/11/15 14:04:33;;;;;;;27.77;19.00;;;;;;;15.00;84.65;99807.67;2933164;79;21111;-87
2022/11/15 14:08:35;;;;;;;42.27;27.52;;;;;;;14.94;84.78;99801.66;2914970;77;20985;-86
2022/11/15 14:12:37;;;;;;;25.40;19.40;;;;;;;14.89;85.61;99796.79;2873274;80;21137;-87
2022/11/15 14:16:47;;;;;;;29.52;19.82;;;;;;;14.57;83.43;99803.75;2874038;80;21123;-86
2022/11/15 14:20:49;;;;;;;71.20;35.50;;;;;;;14.27;83.60;99805.99;2856178;81;21118;-85
2022/11/15 14:25:18;;;;;;;40.85;31.15;;;;;;;14.06;83.46;99798.41;2844685;82;21606;-85
2022/11/15 14:29:25;;;;;;;24.77;19.15;;;;;;;13.83;84.08;99797.13;2805218;82;21041;-86
2022/11/15 14:33:38;;;;;;;25.88;15.83;;;;;;;13.65;84.87;99791.00;2786988;82;21642;-86
2022/11/15 14:37:40;;;;;;;23.02;18.30;;;;;;;13.50;85.81;99787.56;2943450;78;21073;-86
2022/11/15 14:41:42;;;;;;;28.57;18.55;;;;;;;13.45;86.78;99783.20;2941932;78;21039;-88
2022/11/15 14:45:48;;;;;;;21.50;17.35;;;;;;;13.44;86.76;99785.53;2931263;78;20987;-88
2022/11/15 14:49:47;;;;;;;31.48;20.70;;;;;;;13.35;86.10;99783.27;2843661;79;21031;-88
2022/11/15 14:53:49;;;;;;;60.67;34.23;;;;;;;12.97;87.07;99774.16;2851697;80;21050;-87
2022/11/15 14:57:52;;;;;;;54.08;27.25;;;;;;;12.76;88.37;99776.27;2854008;79;21055;-88
2022/11/15 15:01:53;;;;;;;35.68;28.65;;;;;;;12.44;89.27;99770.46;2912008;79;21507;-87
2022/11/15 15:05:56;;;;;;;35.10;28.02;;;;;;;12.18;89.95;99764.52;2940277;78;20996;-88
2022/11/15 15:09:57;;;;;;;35.98;25.08;;;;;;;12.09;89.96;99774.77;2913751;79;21530;-88
2022/11/15 15:14:00;;;;;;;38.85;28.02;;;;;;;12.07;89.97;99781.56;2947387;79;21012;-87
2022/11/15 15:18:04;;;;;;;35.33;27.07;;;;;;;12.06;89.45;99777.22;2937171;79;21012;-87
2022/11/15 15:22:05;;;;;;;38.10;26.62;;;;;;;12.06;89.00;99775.89;2920361;79;21165;-87
2022/11/15 15:26:07;;;;;;;47.65;35.10;;;;;;;11.95;87.68;99780.03;2940696;79;21158;-87
2022/11/15 15:30:10;;;;;;;51.08;35.00;;;;;;;11.82;87.57;99778.56;2934330;79;21106;-87
2022/11/15 15:34:12;;;;;;;54.38;42.03;;;;;;;11.74;87.90;99781.61;2924168;79;21047;-87
2022/11/15 15:38:15;;;;;;;57.67;40.63;;;;;;;11.65;87.54;99786.80;2923069;79;21022;-86
2022/11/15 15:42:16;;;;;;;42.25;33.73;;;;;;;11.55;87.27;99790.01;2907595;79;21007;-86
2022/11/15 15:46:20;;;;;;;48.63;35.80;;;;;;;11.41;86.54;99781.48;2867979;79;21040;-85
2022/11/15 15:50:26;;;;;;;46.58;38.17;;;;;;;11.25;86.95;99774.09;2935212;79;21012;-85
2022/11/15 15:54:27;;;;;;;67.32;45.83;;;;;;;11.03;87.20;99775.23;2925565;79;20983;-86
2022/11/15 15:58:28;;;;;;;57.10;38.85;;;;;;;10.85;88.56;99769.79;2919613;79;21007;-87
2022/11/15 16:02:30;;;;;;;48.78;33.10;;;;;;;10.70;89.41;99770.67;2923115;79;21942;-87
2022/11/15 16:06:36;;;;;;;52.50;36.50;;;;;;;10.53;91.26;99767.75;2940286;79;21054;-86
2022/11/15 16:10:37;;;;;;;;;;;;;;;10.48;92.69;99773.95;2934424;79;20984;-87
2022/11/15 16:14:38;;;;;;;265.55;142.00;;;;;;;10.30;92.89;99772.43;2938007;78;20107;-87
2022/11/15 16:18:40;;;;;;;343.48;199.02;;;;;;;10.07;95.67;99766.02;2931119;79;20967;-87
2022/11/15 16:22:41;;;;;;;118.15;71.42;;;;;;;9.87;98.35;99759.78;2937827;78;21902;-86
2022/11/15 16:26:43;;;;;;;319.62;178.07;;;;;;;9.59;100.00;99750.23;2914409;78;21024;-86
2022/11/15 16:30:44;;;;;;;151.90;91.65;;;;;;;9.47;100.00;99745.50;2922971;79;21019;-86
2022/11/15 16:34:46;;;;;;;101.12;57.62;;;;;;;9.29;100.00;99741.27;2921878;79;21020;-85
2022/11/15 16:38:47;;;;;;;85.47;57.83;;;;;;;9.16;100.00;99750.77;2946075;78;21035;-86
2022/11/15 16:42:49;;;;;;;89.17;55.15;;;;;;;9.14;100.00;99748.73;2881323;80;21514;-86
2022/11/15 16:46:51;;;;;;;93.90;57.62;;;;;;;8.98;100.00;99744.70;2800920;82;21543;-86
2022/11/15 16:50:57;;;;;;;101.18;70.87;;;;;;;8.89;100.00;99744.17;2841809;82;21060;-86
2022/11/15 16:54:59;;;;;;;100.87;63.13;;;;;;;8.77;100.00;99743.85;2829050;82;21003;-86
2022/11/15 16:59:01;;;;;;;82.02;53.48;;;;;;;8.66;100.00;99745.60;2785660;82;21040;-86
2022/11/15 17:03:02;;;;;;;71.80;53.08;;;;;;;8.60;100.00;99742.61;2925297;79;21016;-86
2022/11/15 17:07:04;;;;;;;74.03;48.75;;;;;;;8.53;100.00;99738.29;2914201;79;21040;-86
2022/11/15 17:11:07;;;;;;;77.45;49.93;;;;;;;8.28;100.00;99734.97;2869550;79;21025;-86
2022/11/15 17:15:13;;;;;;;79.80;52.53;;;;;;;8.22;100.00;99735.45;2927874;79;21074;-87
2022/11/15 17:19:20;;;;;;;;;;;;;;;8.20;100.00;99729.44;2910101;79;21008;-86
2022/11/15 17:23:22;;;;;;;77.27;47.30;;;;;;;8.11;100.00;99720.42;2907585;79;20394;-87
2022/11/15 17:27:23;;;;;;;90.90;59.00;;;;;;;8.11;100.00;99729.22;2919216;79;21063;-86
2022/11/15 17:31:24;;;;;;;82.10;56.55;;;;;;;8.09;100.00;99717.91;2931009;79;21011;-86
2022/11/15 17:35:26;;;;;;;87.65;56.92;;;;;;;8.09;100.00;99730.30;2933812;79;20980;-86
2022/11/15 17:39:28;;;;;;;78.92;55.30;;;;;;;8.01;100.00;99725.62;2891975;79;38101;-86
2022/11/15 17:43:31;;;;;;;98.42;61.15;;;;;;;8.03;100.00;99722.86;2860808;79;21035;-87
2022/11/15 17:47:33;;;;;;;82.22;51.83;;;;;;;8.13;100.00;99729.94;2844431;82;21494;-87
2022/11/15 17:51:34;;;;;;;82.12;54.95;;;;;;;8.24;100.00;99721.13;2937601;79;21049;-87
2022/11/15 17:55:37;;;;;;;70.70;49.30;;;;;;;8.37;100.00;99730.23;2933090;79;21010;-87
2022/11/15 17:59:38;;;;;;;67.32;47.55;;;;;;;8.40;98.79;99721.20;2921492;78;21581;-86
2022/11/15 18:03:40;;;;;;;70.65;47.35;;;;;;;8.32;96.97;99717.84;2906924;79;20996;-87
2022/11/15 18:07:41;;;;;;;67.10;44.05;;;;;;;8.25;97.20;99714.85;2918502;79;21053;-86
2022/11/15 18:11:45;;;;;;;63.98;41.75;;;;;;;8.22;97.70;99697.88;2932703;78;21008;-88
2022/11/15 18:15:53;;;;;;;142.68;92.97;;;;;;;8.05;97.04;99700.56;2920674;78;21049;-85
2022/11/15 18:19:55;;;;;;;172.90;109.27;;;;;;;7.88;98.46;99707.72;2925719;79;21033;-87
2022/11/15 18:23:59;;;;;;;135.37;88.55;;;;;;;7.74;99.32;99705.68;2879784;79;20992;-87
2022/11/15 18:28:01;;;;;;;131.75;81.05;;;;;;;7.71;99.38;99700.63;2939611;79;21031;-87
2022/11/15 18:32:10;;;;;;;117.40;75.25;;;;;;;7.75;99.69;99704.72;2916545;79;21554;-88
2022/11/15 18:36:12;;;;;;;101.63;67.50;;;;;;;7.72;99.40;99706.29;2932925;79;21014;-87
2022/11/15 18:40:13;;;;;;;75.03;46.88;;;;;;;7.62;99.92;99703.99;2925741;79;21050;-87
2022/11/15 18:44:16;;;;;;;74.00;46.08;;;;;;;7.65;98.63;99699.31;2939798;79;20997;-88
2022/11/15 18:48:18;;;;;;;62.48;41.23;;;;;;;7.69;96.98;99701.24;2881366;79;21008;-87
2022/11/15 18:52:19;;;;;;;81.32;48.63;;;;;;;7.69;96.54;99702.56;2948184;78;21903;-87
2022/11/15 18:56:23;;;;;;;72.17;47.13;;;;;;;7.73;97.42;99701.34;2932580;78;21043;-88
2022/11/15 19:00:25;;;;;;;79.95;47.23;;;;;;;7.72;98.13;99699.67;2921556;80;21052;-87